sensor_id;sensor_type;location;lat;lon;timestamp;P1;durP1;ratioP1;P2;durP2;ratioP2
55589;SDS011;41452;42.780;23.116;2022-09-13T00:00:30;6.43;;;3.28;;
55589;SDS011;41452;42.780;23.116;2022-09-13T00:02:56;5.38;;;3.42;;
55589;SDS011;41452;42.780;23.116;2022-09-13T00:05:21;5.25;;;3.28;;
55589;SDS011;41452;42.780;23.116;2022-09-13T00:07:47;6.78;;;3.42;;
55589;SDS011;41452;42.780;23.116;2022-09-13T00:10:13;5.40;;;3.40;;
55589;SDS011;41452;42.780;23.116;2022-09-13T00:12:38;4.88;;;3.17;;
55589;SDS011;41452;42.780;23.116;2022-09-13T00:15:04;5.68;;;3.58;;
55589;SDS011;41452;42.780;23.116;2022-09-13T00:17:29;7.18;;;3.60;;
55589;SDS011;41452;42.780;23.116;2022-09-13T00:19:55;5.30;;;3.40;;
55589;SDS011;41452;42.780;23.116;2022-09-13T00:22:20;5.32;;;3.35;;
55589;SDS011;41452;42.780;23.116;2022-09-13T00:24:46;5.00;;;3.13;;
55589;SDS011;41452;42.780;23.116;2022-09-13T00:27:11;5.30;;;3.17;;
55589;SDS011;41452;42.780;23.116;2022-09-13T00:29:37;6.78;;;3.92;;
55589;SDS011;41452;42.780;23.116;2022-09-13T00:32:03;9.30;;;3.35;;
55589;SDS011;41452;42.780;23.116;2022-09-13T00:34:28;5.13;;;3.58;;
55589;SDS011;41452;42.780;23.116;2022-09-13T00:36:54;5.43;;;3.10;;
55589;SDS011;41452;42.780;23.116;2022-09-13T00:39:20;5.40;;;3.45;;
55589;SDS011;41452;42.780;23.116;2022-09-13T00:41:45;9.25;;;3.60;;
55589;SDS011;41452;42.780;23.116;2022-09-13T00:47:23;9.32;;;3.63;;
55589;SDS011;41452;42.780;23.116;2022-09-13T00:49:56;6.30;;;3.58;;
55589;SDS011;41452;42.780;23.116;2022-09-13T00:52:29;7.20;;;3.75;;
55589;SDS011;41452;42.780;23.116;2022-09-13T00:55:41;6.05;;;3.60;;
55589;SDS011;41452;42.780;23.116;2022-09-13T00:57:50;8.80;;;3.95;;
55589;SDS011;41452;42.780;23.116;2022-09-13T01:00:19;5.93;;;3.50;;
55589;SDS011;41452;42.780;23.116;2022-09-13T01:02:50;6.75;;;4.05;;
55589;SDS011;41452;42.780;23.116;2022-09-13T01:05:20;7.95;;;3.58;;
55589;SDS011;41452;42.780;23.116;2022-09-13T01:07:48;6.97;;;4.28;;
55589;SDS011;41452;42.780;23.116;2022-09-13T01:10:14;8.32;;;3.47;;
55589;SDS011;41452;42.780;23.116;2022-09-13T01:12:49;6.20;;;3.90;;
55589;SDS011;41452;42.780;23.116;2022-09-13T01:15:20;5.55;;;3.60;;
55589;SDS011;41452;42.780;23.116;2022-09-13T01:17:46;5.65;;;3.40;;
55589;SDS011;41452;42.780;23.116;2022-09-13T01:20:12;6.03;;;3.75;;
55589;SDS011;41452;42.780;23.116;2022-09-13T01:22:46;5.88;;;4.03;;
55589;SDS011;41452;42.780;23.116;2022-09-13T01:28:22;5.82;;;3.30;;
55589;SDS011;41452;42.780;23.116;2022-09-13T01:30:53;6.75;;;3.75;;
55589;SDS011;41452;42.780;23.116;2022-09-13T01:33:33;8.90;;;3.90;;
55589;SDS011;41452;42.780;23.116;2022-09-13T01:36:19;7.22;;;4.13;;
55589;SDS011;41452;42.780;23.116;2022-09-13T02:00:05;12.13;;;4.10;;
55589;SDS011;41452;42.780;23.116;2022-09-13T02:05:27;6.25;;;4.18;;
55589;SDS011;41452;42.780;23.116;2022-09-13T02:07:59;4.97;;;3.72;;
55589;SDS011;41452;42.780;23.116;2022-09-13T02:10:30;5.60;;;4.07;;
55589;SDS011;41452;42.780;23.116;2022-09-13T02:13:00;5.70;;;3.50;;
55589;SDS011;41452;42.780;23.116;2022-09-13T02:15:33;5.95;;;3.55;;
55589;SDS011;41452;42.780;23.116;2022-09-13T02:18:12;6.45;;;3.25;;
55589;SDS011;41452;42.780;23.116;2022-09-13T02:20:45;5.03;;;3.53;;
55589;SDS011;41452;42.780;23.116;2022-09-13T02:23:14;5.43;;;3.85;;
55589;SDS011;41452;42.780;23.116;2022-09-13T02:25:43;7.60;;;3.97;;
55589;SDS011;41452;42.780;23.116;2022-09-13T02:28:12;5.95;;;3.53;;
55589;SDS011;41452;42.780;23.116;2022-09-13T02:30:42;8.77;;;4.38;;
55589;SDS011;41452;42.780;23.116;2022-09-13T02:33:15;7.47;;;3.72;;
55589;SDS011;41452;42.780;23.116;2022-09-13T02:38:21;5.38;;;3.92;;
55589;SDS011;41452;42.780;23.116;2022-09-13T02:41:00;6.13;;;4.07;;
55589;SDS011;41452;42.780;23.116;2022-09-13T02:46:09;6.68;;;3.55;;
55589;SDS011;41452;42.780;23.116;2022-09-13T02:51:14;5.65;;;3.60;;
55589;SDS011;41452;42.780;23.116;2022-09-13T02:53:54;4.55;;;3.63;;
55589;SDS011;41452;42.780;23.116;2022-09-13T02:56:42;5.97;;;3.63;;
55589;SDS011;41452;42.780;23.116;2022-09-13T03:01:48;5.57;;;3.00;;
55589;SDS011;41452;42.780;23.116;2022-09-13T03:04:19;5.40;;;3.50;;
55589;SDS011;41452;42.780;23.116;2022-09-13T03:06:44;5.47;;;3.08;;
55589;SDS011;41452;42.780;23.116;2022-09-13T03:09:09;7.88;;;3.30;;
55589;SDS011;41452;42.780;23.116;2022-09-13T03:20:05;4.35;;;3.38;;
55589;SDS011;41452;42.780;23.116;2022-09-13T03:31:13;4.57;;;3.40;;
55589;SDS011;41452;42.780;23.116;2022-09-13T03:34:09;4.53;;;3.50;;
55589;SDS011;41452;42.780;23.116;2022-09-13T03:39:56;5.30;;;3.10;;
55589;SDS011;41452;42.780;23.116;2022-09-13T03:42:36;7.05;;;3.17;;
55589;SDS011;41452;42.780;23.116;2022-09-13T03:45:27;11.43;;;3.60;;
55589;SDS011;41452;42.780;23.116;2022-09-13T03:47:57;3.75;;;2.55;;
55589;SDS011;41452;42.780;23.116;2022-09-13T03:50:24;6.45;;;3.22;;
55589;SDS011;41452;42.780;23.116;2022-09-13T03:52:51;5.00;;;2.95;;
55589;SDS011;41452;42.780;23.116;2022-09-13T03:55:23;3.75;;;2.83;;
55589;SDS011;41452;42.780;23.116;2022-09-13T03:57:49;4.40;;;2.97;;
55589;SDS011;41452;42.780;23.116;2022-09-13T04:00:15;4.10;;;3.00;;
55589;SDS011;41452;42.780;23.116;2022-09-13T04:02:42;4.35;;;2.67;;
55589;SDS011;41452;42.780;23.116;2022-09-13T04:05:08;3.95;;;2.40;;
55589;SDS011;41452;42.780;23.116;2022-09-13T04:07:33;5.82;;;2.80;;
55589;SDS011;41452;42.780;23.116;2022-09-13T04:09:58;4.85;;;2.70;;
55589;SDS011;41452;42.780;23.116;2022-09-13T04:12:24;4.97;;;3.22;;
55589;SDS011;41452;42.780;23.116;2022-09-13T04:14:51;7.25;;;3.33;;
55589;SDS011;41452;42.780;23.116;2022-09-13T04:17:16;4.53;;;2.60;;
55589;SDS011;41452;42.780;23.116;2022-09-13T04:19:42;4.90;;;2.75;;
55589;SDS011;41452;42.780;23.116;2022-09-13T04:22:09;3.90;;;2.70;;
55589;SDS011;41452;42.780;23.116;2022-09-13T04:24:35;11.13;;;2.80;;
55589;SDS011;41452;42.780;23.116;2022-09-13T04:27:00;3.83;;;2.60;;
55589;SDS011;41452;42.780;23.116;2022-09-13T04:29:26;5.18;;;2.92;;
55589;SDS011;41452;42.780;23.116;2022-09-13T04:31:53;4.45;;;2.75;;
55589;SDS011;41452;42.780;23.116;2022-09-13T04:34:19;4.00;;;2.40;;
55589;SDS011;41452;42.780;23.116;2022-09-13T04:36:47;4.95;;;3.15;;
55589;SDS011;41452;42.780;23.116;2022-09-13T04:39:16;6.55;;;3.03;;
55589;SDS011;41452;42.780;23.116;2022-09-13T04:41:41;5.32;;;2.90;;
55589;SDS011;41452;42.780;23.116;2022-09-13T04:44:10;4.28;;;2.50;;
55589;SDS011;41452;42.780;23.116;2022-09-13T04:46:35;4.88;;;2.88;;
55589;SDS011;41452;42.780;23.116;2022-09-13T04:49:01;4.78;;;2.80;;
55589;SDS011;41452;42.780;23.116;2022-09-13T04:51:27;5.78;;;2.92;;
55589;SDS011;41452;42.780;23.116;2022-09-13T04:53:53;6.80;;;2.90;;
55589;SDS011;41452;42.780;23.116;2022-09-13T04:56:22;5.25;;;3.13;;
55589;SDS011;41452;42.780;23.116;2022-09-13T04:58:52;4.95;;;2.85;;
55589;SDS011;41452;42.780;23.116;2022-09-13T05:01:19;4.70;;;3.10;;
55589;SDS011;41452;42.780;23.116;2022-09-13T05:03:45;7.07;;;3.10;;
55589;SDS011;41452;42.780;23.116;2022-09-13T05:06:12;4.50;;;2.50;;
55589;SDS011;41452;42.780;23.116;2022-09-13T05:08:39;4.30;;;3.00;;
55589;SDS011;41452;42.780;23.116;2022-09-13T05:11:05;4.60;;;2.85;;
55589;SDS011;41452;42.780;23.116;2022-09-13T05:13:31;4.75;;;3.08;;
55589;SDS011;41452;42.780;23.116;2022-09-13T05:16:01;4.13;;;2.78;;
55589;SDS011;41452;42.780;23.116;2022-09-13T05:18:31;9.93;;;3.00;;
55589;SDS011;41452;42.780;23.116;2022-09-13T05:20:58;4.82;;;2.78;;
55589;SDS011;41452;42.780;23.116;2022-09-13T05:23:25;5.05;;;2.83;;
55589;SDS011;41452;42.780;23.116;2022-09-13T05:25:54;12.00;;;2.70;;
55589;SDS011;41452;42.780;23.116;2022-09-13T05:28:21;6.03;;;3.63;;
55589;SDS011;41452;42.780;23.116;2022-09-13T05:30:58;3.95;;;2.70;;
55589;SDS011;41452;42.780;23.116;2022-09-13T05:33:31;11.07;;;3.05;;
55589;SDS011;41452;42.780;23.116;2022-09-13T05:35:59;6.18;;;2.95;;
55589;SDS011;41452;42.780;23.116;2022-09-13T05:38:25;5.60;;;3.42;;
55589;SDS011;41452;42.780;23.116;2022-09-13T05:40:58;5.45;;;3.25;;
55589;SDS011;41452;42.780;23.116;2022-09-13T05:43:26;7.15;;;3.15;;
55589;SDS011;41452;42.780;23.116;2022-09-13T05:46:03;10.27;;;3.80;;
55589;SDS011;41452;42.780;23.116;2022-09-13T05:48:30;8.32;;;2.78;;
55589;SDS011;41452;42.780;23.116;2022-09-13T06:02:05;5.03;;;3.47;;
55589;SDS011;41452;42.780;23.116;2022-09-13T06:04:30;5.32;;;3.17;;
55589;SDS011;41452;42.780;23.116;2022-09-13T06:06:56;5.22;;;3.50;;
55589;SDS011;41452;42.780;23.116;2022-09-13T06:09:21;4.97;;;3.17;;
55589;SDS011;41452;42.780;23.116;2022-09-13T06:14:21;4.18;;;2.88;;
55589;SDS011;41452;42.780;23.116;2022-09-13T06:16:47;5.18;;;3.38;;
55589;SDS011;41452;42.780;23.116;2022-09-13T06:19:12;4.60;;;3.05;;
55589;SDS011;41452;42.780;23.116;2022-09-13T06:21:37;4.50;;;2.50;;
55589;SDS011;41452;42.780;23.116;2022-09-13T06:24:03;4.93;;;3.47;;
55589;SDS011;41452;42.780;23.116;2022-09-13T06:26:29;4.90;;;2.63;;
55589;SDS011;41452;42.780;23.116;2022-09-13T06:28:56;23.17;;;4.65;;
55589;SDS011;41452;42.780;23.116;2022-09-13T06:31:23;7.03;;;3.78;;
55589;SDS011;41452;42.780;23.116;2022-09-13T06:33:53;6.53;;;3.20;;
55589;SDS011;41452;42.780;23.116;2022-09-13T06:36:21;4.93;;;2.78;;
55589;SDS011;41452;42.780;23.116;2022-09-13T06:38:47;5.03;;;3.15;;
55589;SDS011;41452;42.780;23.116;2022-09-13T06:41:13;4.40;;;2.90;;
55589;SDS011;41452;42.780;23.116;2022-09-13T06:43:42;5.32;;;3.10;;
55589;SDS011;41452;42.780;23.116;2022-09-13T06:46:09;4.90;;;2.72;;
55589;SDS011;41452;42.780;23.116;2022-09-13T06:48:38;9.02;;;2.90;;
55589;SDS011;41452;42.780;23.116;2022-09-13T06:51:07;3.95;;;2.60;;
55589;SDS011;41452;42.780;23.116;2022-09-13T06:53:34;5.47;;;3.00;;
55589;SDS011;41452;42.780;23.116;2022-09-13T06:58:34;4.82;;;3.00;;
55589;SDS011;41452;42.780;23.116;2022-09-13T07:01:14;5.70;;;3.22;;
55589;SDS011;41452;42.780;23.116;2022-09-13T07:03:47;6.60;;;3.10;;
55589;SDS011;41452;42.780;23.116;2022-09-13T07:06:19;5.20;;;2.95;;
55589;SDS011;41452;42.780;23.116;2022-09-13T07:08:46;5.70;;;2.90;;
55589;SDS011;41452;42.780;23.116;2022-09-13T07:11:13;5.00;;;2.78;;
55589;SDS011;41452;42.780;23.116;2022-09-13T07:13:42;3.75;;;2.65;;
55589;SDS011;41452;42.780;23.116;2022-09-13T07:16:15;7.30;;;3.33;;
55589;SDS011;41452;42.780;23.116;2022-09-13T07:18:42;4.38;;;2.65;;
55589;SDS011;41452;42.780;23.116;2022-09-13T07:21:08;4.97;;;2.85;;
55589;SDS011;41452;42.780;23.116;2022-09-13T07:23:36;11.80;;;4.10;;
55589;SDS011;41452;42.780;23.116;2022-09-13T07:26:03;6.47;;;3.10;;
55589;SDS011;41452;42.780;23.116;2022-09-13T07:28:31;5.40;;;3.00;;
55589;SDS011;41452;42.780;23.116;2022-09-13T07:31:13;5.15;;;3.17;;
55589;SDS011;41452;42.780;23.116;2022-09-13T07:33:41;3.38;;;2.45;;
55589;SDS011;41452;42.780;23.116;2022-09-13T07:36:08;6.35;;;3.60;;
55589;SDS011;41452;42.780;23.116;2022-09-13T07:38:36;5.32;;;3.13;;
55589;SDS011;41452;42.780;23.116;2022-09-13T07:41:06;4.15;;;2.58;;
55589;SDS011;41452;42.780;23.116;2022-09-13T07:43:35;5.28;;;2.70;;
55589;SDS011;41452;42.780;23.116;2022-09-13T07:46:02;5.18;;;2.80;;
55589;SDS011;41452;42.780;23.116;2022-09-13T07:48:32;5.75;;;3.03;;
55589;SDS011;41452;42.780;23.116;2022-09-13T07:51:06;3.38;;;2.42;;
55589;SDS011;41452;42.780;23.116;2022-09-13T07:53:36;4.10;;;2.78;;
55589;SDS011;41452;42.780;23.116;2022-09-13T07:56:03;13.93;;;2.88;;
55589;SDS011;41452;42.780;23.116;2022-09-13T07:58:39;5.68;;;2.22;;
55589;SDS011;41452;42.780;23.116;2022-09-13T08:01:15;10.52;;;2.95;;
55589;SDS011;41452;42.780;23.116;2022-09-13T08:03:42;4.93;;;2.53;;
55589;SDS011;41452;42.780;23.116;2022-09-13T08:06:08;5.07;;;2.35;;
55589;SDS011;41452;42.780;23.116;2022-09-13T08:08:33;9.27;;;2.50;;
55589;SDS011;41452;42.780;23.116;2022-09-13T08:11:00;4.60;;;2.50;;
55589;SDS011;41452;42.780;23.116;2022-09-13T08:13:27;4.28;;;2.10;;
55589;SDS011;41452;42.780;23.116;2022-09-13T08:15:53;3.25;;;2.15;;
55589;SDS011;41452;42.780;23.116;2022-09-13T08:18:19;3.28;;;1.73;;
55589;SDS011;41452;42.780;23.116;2022-09-13T08:20:44;4.43;;;2.40;;
55589;SDS011;41452;42.780;23.116;2022-09-13T08:23:10;4.47;;;2.13;;
55589;SDS011;41452;42.780;23.116;2022-09-13T08:25:36;3.55;;;2.20;;
55589;SDS011;41452;42.780;23.116;2022-09-13T08:28:09;3.33;;;2.03;;
55589;SDS011;41452;42.780;23.116;2022-09-13T08:30:41;7.22;;;2.40;;
55589;SDS011;41452;42.780;23.116;2022-09-13T08:33:07;4.63;;;2.20;;
55589;SDS011;41452;42.780;23.116;2022-09-13T08:35:34;4.03;;;2.17;;
55589;SDS011;41452;42.780;23.116;2022-09-13T08:38:00;2.78;;;1.80;;
55589;SDS011;41452;42.780;23.116;2022-09-13T08:40:27;5.18;;;1.70;;
55589;SDS011;41452;42.780;23.116;2022-09-13T08:43:58;5.28;;;2.17;;
55589;SDS011;41452;42.780;23.116;2022-09-13T08:46:11;3.22;;;2.05;;
55589;SDS011;41452;42.780;23.116;2022-09-13T08:48:40;3.65;;;2.38;;
55589;SDS011;41452;42.780;23.116;2022-09-13T08:51:16;3.45;;;2.13;;
55589;SDS011;41452;42.780;23.116;2022-09-13T08:53:52;3.25;;;1.77;;
55589;SDS011;41452;42.780;23.116;2022-09-13T08:56:19;3.25;;;2.33;;
55589;SDS011;41452;42.780;23.116;2022-09-13T08:58:51;4.45;;;2.70;;
55589;SDS011;41452;42.780;23.116;2022-09-13T09:07:35;4.32;;;2.03;;
55589;SDS011;41452;42.780;23.116;2022-09-13T09:09:49;3.22;;;2.00;;
55589;SDS011;41452;42.780;23.116;2022-09-13T09:12:38;3.38;;;2.30;;
55589;SDS011;41452;42.780;23.116;2022-09-13T09:15:14;4.55;;;2.78;;
55589;SDS011;41452;42.780;23.116;2022-09-13T09:20:55;2.83;;;1.90;;
55589;SDS011;41452;42.780;23.116;2022-09-13T09:22:57;6.78;;;2.08;;
55589;SDS011;41452;42.780;23.116;2022-09-13T09:25:27;8.35;;;2.10;;
55589;SDS011;41452;42.780;23.116;2022-09-13T09:27:52;5.03;;;1.92;;
55589;SDS011;41452;42.780;23.116;2022-09-13T09:30:18;2.97;;;1.90;;
55589;SDS011;41452;42.780;23.116;2022-09-13T09:35:31;3.22;;;2.00;;
55589;SDS011;41452;42.780;23.116;2022-09-13T09:40:49;3.78;;;2.00;;
55589;SDS011;41452;42.780;23.116;2022-09-13T09:43:32;3.70;;;1.90;;
55589;SDS011;41452;42.780;23.116;2022-09-13T09:46:03;3.45;;;2.03;;
55589;SDS011;41452;42.780;23.116;2022-09-13T09:48:35;5.30;;;3.03;;
55589;SDS011;41452;42.780;23.116;2022-09-13T09:51:05;3.53;;;1.85;;
55589;SDS011;41452;42.780;23.116;2022-09-13T09:53:35;4.22;;;1.90;;
55589;SDS011;41452;42.780;23.116;2022-09-13T10:02:18;5.45;;;2.08;;
55589;SDS011;41452;42.780;23.116;2022-09-13T10:04:55;7.88;;;2.30;;
55589;SDS011;41452;42.780;23.116;2022-09-13T10:09:56;3.75;;;2.38;;
55589;SDS011;41452;42.780;23.116;2022-09-13T10:12:28;5.00;;;2.00;;
55589;SDS011;41452;42.780;23.116;2022-09-13T10:15:14;3.05;;;1.67;;
55589;SDS011;41452;42.780;23.116;2022-09-13T10:17:42;3.15;;;1.40;;
55589;SDS011;41452;42.780;23.116;2022-09-13T10:22:39;7.95;;;2.65;;
55589;SDS011;41452;42.780;23.116;2022-09-13T10:25:23;2.40;;;1.50;;
55589;SDS011;41452;42.780;23.116;2022-09-13T10:27:56;3.75;;;1.65;;
55589;SDS011;41452;42.780;23.116;2022-09-13T10:32:55;2.85;;;1.40;;
55589;SDS011;41452;42.780;23.116;2022-09-13T10:35:22;2.53;;;1.30;;
55589;SDS011;41452;42.780;23.116;2022-09-13T10:37:48;4.85;;;1.92;;
55589;SDS011;41452;42.780;23.116;2022-09-13T10:40:18;2.55;;;1.40;;
55589;SDS011;41452;42.780;23.116;2022-09-13T10:42:57;4.50;;;1.90;;
55589;SDS011;41452;42.780;23.116;2022-09-13T10:45:25;3.38;;;1.70;;
55589;SDS011;41452;42.780;23.116;2022-09-13T10:47:53;3.17;;;1.70;;
55589;SDS011;41452;42.780;23.116;2022-09-13T10:50:29;5.22;;;1.90;;
55589;SDS011;41452;42.780;23.116;2022-09-13T10:53:00;6.55;;;1.70;;
55589;SDS011;41452;42.780;23.116;2022-09-13T10:55:30;2.92;;;1.52;;
55589;SDS011;41452;42.780;23.116;2022-09-13T11:08:28;2.67;;;1.40;;
55589;SDS011;41452;42.780;23.116;2022-09-13T11:11:09;3.47;;;1.55;;
55589;SDS011;41452;42.780;23.116;2022-09-13T11:16:13;3.42;;;1.73;;
55589;SDS011;41452;42.780;23.116;2022-09-13T11:18:44;3.03;;;1.90;;
55589;SDS011;41452;42.780;23.116;2022-09-13T11:26:45;2.97;;;1.77;;
55589;SDS011;41452;42.780;23.116;2022-09-13T11:32:00;3.67;;;2.17;;
55589;SDS011;41452;42.780;23.116;2022-09-13T11:50:21;2.97;;;1.63;;
55589;SDS011;41452;42.780;23.116;2022-09-13T11:55:50;2.95;;;1.75;;
55589;SDS011;41452;42.780;23.116;2022-09-13T11:58:31;2.85;;;1.42;;
55589;SDS011;41452;42.780;23.116;2022-09-13T12:01:06;2.28;;;1.45;;
55589;SDS011;41452;42.780;23.116;2022-09-13T12:03:49;2.20;;;1.40;;
55589;SDS011;41452;42.780;23.116;2022-09-13T12:06:26;1.90;;;1.17;;
55589;SDS011;41452;42.780;23.116;2022-09-13T12:08:57;3.13;;;1.42;;
55589;SDS011;41452;42.780;23.116;2022-09-13T12:11:33;2.45;;;1.20;;
55589;SDS011;41452;42.780;23.116;2022-09-13T12:14:05;1.92;;;1.42;;
55589;SDS011;41452;42.780;23.116;2022-09-13T12:16:42;3.25;;;1.90;;
55589;SDS011;41452;42.780;23.116;2022-09-13T12:19:17;4.00;;;1.50;;
55589;SDS011;41452;42.780;23.116;2022-09-13T12:21:47;2.55;;;1.50;;
55589;SDS011;41452;42.780;23.116;2022-09-13T12:32:11;2.53;;;1.30;;
55589;SDS011;41452;42.780;23.116;2022-09-13T12:54:01;3.72;;;1.77;;
55589;SDS011;41452;42.780;23.116;2022-09-13T13:00:07;2.60;;;1.63;;
55589;SDS011;41452;42.780;23.116;2022-09-13T13:02:42;3.00;;;1.80;;
55589;SDS011;41452;42.780;23.116;2022-09-13T13:05:40;2.63;;;1.70;;
55589;SDS011;41452;42.780;23.116;2022-09-13T13:10:43;3.22;;;1.83;;
55589;SDS011;41452;42.780;23.116;2022-09-13T13:13:28;3.80;;;1.90;;
55589;SDS011;41452;42.780;23.116;2022-09-13T13:15:57;4.00;;;2.00;;
55589;SDS011;41452;42.780;23.116;2022-09-13T13:31:55;3.20;;;2.40;;
55589;SDS011;41452;42.780;23.116;2022-09-13T13:33:58;4.00;;;1.70;;
55589;SDS011;41452;42.780;23.116;2022-09-13T13:36:45;3.95;;;1.90;;
55589;SDS011;41452;42.780;23.116;2022-09-13T13:41:57;3.00;;;1.85;;
55589;SDS011;41452;42.780;23.116;2022-09-13T13:59:44;3.08;;;1.80;;
55589;SDS011;41452;42.780;23.116;2022-09-13T14:02:14;3.08;;;1.98;;
55589;SDS011;41452;42.780;23.116;2022-09-13T14:13:23;2.70;;;1.77;;
55589;SDS011;41452;42.780;23.116;2022-09-13T14:15:58;2.72;;;2.00;;
55589;SDS011;41452;42.780;23.116;2022-09-13T14:21:28;3.22;;;2.10;;
55589;SDS011;41452;42.780;23.116;2022-09-13T14:26:51;2.85;;;2.00;;
55589;SDS011;41452;42.780;23.116;2022-09-13T14:29:21;3.83;;;2.38;;
55589;SDS011;41452;42.780;23.116;2022-09-13T14:31:51;1.90;;;1.60;;
55589;SDS011;41452;42.780;23.116;2022-09-13T14:34:19;4.13;;;2.00;;
55589;SDS011;41452;42.780;23.116;2022-09-13T14:36:50;5.78;;;1.52;;
55589;SDS011;41452;42.780;23.116;2022-09-13T14:39:18;3.92;;;1.80;;
55589;SDS011;41452;42.780;23.116;2022-09-13T14:41:44;3.45;;;2.15;;
55589;SDS011;41452;42.780;23.116;2022-09-13T14:44:13;4.32;;;2.08;;
55589;SDS011;41452;42.780;23.116;2022-09-13T14:46:53;2.65;;;2.08;;
55589;SDS011;41452;42.780;23.116;2022-09-13T14:49:42;5.25;;;1.98;;
55589;SDS011;41452;42.780;23.116;2022-09-13T14:52:17;9.18;;;2.17;;
55589;SDS011;41452;42.780;23.116;2022-09-13T14:54:49;3.28;;;2.47;;
55589;SDS011;41452;42.780;23.116;2022-09-13T15:00:18;3.08;;;2.30;;
55589;SDS011;41452;42.780;23.116;2022-09-13T15:02:49;2.92;;;1.90;;
55589;SDS011;41452;42.780;23.116;2022-09-13T15:05:18;3.25;;;1.80;;
55589;SDS011;41452;42.780;23.116;2022-09-13T15:07:45;3.78;;;2.08;;
55589;SDS011;41452;42.780;23.116;2022-09-13T15:12:37;2.83;;;1.98;;
55589;SDS011;41452;42.780;23.116;2022-09-13T15:17:53;7.45;;;2.33;;
55589;SDS011;41452;42.780;23.116;2022-09-13T15:20:52;4.90;;;2.05;;
55589;SDS011;41452;42.780;23.116;2022-09-13T15:23:26;4.15;;;2.03;;
55589;SDS011;41452;42.780;23.116;2022-09-13T15:28:30;3.15;;;2.00;;
55589;SDS011;41452;42.780;23.116;2022-09-13T15:31:27;4.15;;;2.30;;
55589;SDS011;41452;42.780;23.116;2022-09-13T15:34:11;3.10;;;2.10;;
55589;SDS011;41452;42.780;23.116;2022-09-13T15:37:07;7.30;;;2.33;;
55589;SDS011;41452;42.780;23.116;2022-09-13T15:39:41;3.78;;;2.50;;
55589;SDS011;41452;42.780;23.116;2022-09-13T15:42:26;2.72;;;2.17;;
55589;SDS011;41452;42.780;23.116;2022-09-13T15:44:51;4.65;;;2.20;;
55589;SDS011;41452;42.780;23.116;2022-09-13T15:47:17;4.55;;;3.20;;
55589;SDS011;41452;42.780;23.116;2022-09-13T15:49:46;5.55;;;2.90;;
55589;SDS011;41452;42.780;23.116;2022-09-13T15:52:16;6.22;;;2.72;;
55589;SDS011;41452;42.780;23.116;2022-09-13T15:54:43;5.95;;;2.40;;
55589;SDS011;41452;42.780;23.116;2022-09-13T15:59:50;4.40;;;2.53;;
55589;SDS011;41452;42.780;23.116;2022-09-13T16:02:20;3.45;;;2.28;;
55589;SDS011;41452;42.780;23.116;2022-09-13T16:04:46;4.15;;;2.70;;
55589;SDS011;41452;42.780;23.116;2022-09-13T16:07:12;3.05;;;2.40;;
55589;SDS011;41452;42.780;23.116;2022-09-13T16:09:37;3.67;;;2.60;;
55589;SDS011;41452;42.780;23.116;2022-09-13T16:12:03;5.18;;;2.45;;
55589;SDS011;41452;42.780;23.116;2022-09-13T16:14:29;3.97;;;2.85;;
55589;SDS011;41452;42.780;23.116;2022-09-13T16:16:54;4.13;;;2.85;;
55589;SDS011;41452;42.780;23.116;2022-09-13T16:19:20;5.70;;;3.30;;
55589;SDS011;41452;42.780;23.116;2022-09-13T16:21:47;7.22;;;4.22;;
55589;SDS011;41452;42.780;23.116;2022-09-13T16:24:14;9.70;;;4.22;;
55589;SDS011;41452;42.780;23.116;2022-09-13T16:26:40;11.50;;;3.88;;
55589;SDS011;41452;42.780;23.116;2022-09-13T16:29:07;8.80;;;4.65;;
55589;SDS011;41452;42.780;23.116;2022-09-13T16:31:34;10.60;;;4.75;;
55589;SDS011;41452;42.780;23.116;2022-09-13T16:33:59;8.82;;;4.35;;
55589;SDS011;41452;42.780;23.116;2022-09-13T16:36:25;14.50;;;5.88;;
55589;SDS011;41452;42.780;23.116;2022-09-13T16:38:52;9.77;;;4.30;;
55589;SDS011;41452;42.780;23.116;2022-09-13T16:41:18;7.63;;;3.88;;
55589;SDS011;41452;42.780;23.116;2022-09-13T16:43:44;6.10;;;3.67;;
55589;SDS011;41452;42.780;23.116;2022-09-13T16:46:10;7.82;;;3.50;;
55589;SDS011;41452;42.780;23.116;2022-09-13T16:48:37;8.98;;;3.45;;
55589;SDS011;41452;42.780;23.116;2022-09-13T16:51:03;7.32;;;3.40;;
55589;SDS011;41452;42.780;23.116;2022-09-13T16:53:31;3.78;;;2.97;;
55589;SDS011;41452;42.780;23.116;2022-09-13T16:56:04;4.32;;;3.05;;
55589;SDS011;41452;42.780;23.116;2022-09-13T16:58:30;6.68;;;3.03;;
55589;SDS011;41452;42.780;23.116;2022-09-13T17:00:55;6.60;;;3.30;;
55589;SDS011;41452;42.780;23.116;2022-09-13T17:03:21;6.38;;;3.25;;
55589;SDS011;41452;42.780;23.116;2022-09-13T17:05:55;6.45;;;3.53;;
55589;SDS011;41452;42.780;23.116;2022-09-13T17:08:24;6.88;;;3.20;;
55589;SDS011;41452;42.780;23.116;2022-09-13T17:10:50;8.38;;;3.35;;
55589;SDS011;41452;42.780;23.116;2022-09-13T17:13:15;8.40;;;3.47;;
55589;SDS011;41452;42.780;23.116;2022-09-13T17:15:41;5.57;;;3.03;;
55589;SDS011;41452;42.780;23.116;2022-09-13T17:18:06;6.47;;;3.17;;
55589;SDS011;41452;42.780;23.116;2022-09-13T17:20:32;3.80;;;2.88;;
55589;SDS011;41452;42.780;23.116;2022-09-13T17:22:58;8.88;;;3.42;;
55589;SDS011;41452;42.780;23.116;2022-09-13T17:25:24;5.85;;;3.25;;
55589;SDS011;41452;42.780;23.116;2022-09-13T17:27:49;3.72;;;3.00;;
55589;SDS011;41452;42.780;23.116;2022-09-13T17:30:15;4.53;;;3.50;;
55589;SDS011;41452;42.780;23.116;2022-09-13T17:32:41;6.32;;;3.92;;
55589;SDS011;41452;42.780;23.116;2022-09-13T17:35:06;5.03;;;3.45;;
55589;SDS011;41452;42.780;23.116;2022-09-13T17:37:32;7.30;;;3.58;;
55589;SDS011;41452;42.780;23.116;2022-09-13T17:39:57;5.30;;;3.55;;
55589;SDS011;41452;42.780;23.116;2022-09-13T17:42:23;5.70;;;3.65;;
55589;SDS011;41452;42.780;23.116;2022-09-13T17:44:48;4.22;;;3.53;;
55589;SDS011;41452;42.780;23.116;2022-09-13T17:47:14;5.95;;;3.58;;
55589;SDS011;41452;42.780;23.116;2022-09-13T17:49:40;6.30;;;3.15;;
55589;SDS011;41452;42.780;23.116;2022-09-13T17:52:05;8.10;;;3.63;;
55589;SDS011;41452;42.780;23.116;2022-09-13T17:54:32;6.30;;;3.33;;
55589;SDS011;41452;42.780;23.116;2022-09-13T17:56:57;4.40;;;3.38;;
55589;SDS011;41452;42.780;23.116;2022-09-13T17:59:22;5.20;;;3.67;;
55589;SDS011;41452;42.780;23.116;2022-09-13T18:01:52;5.35;;;3.75;;
55589;SDS011;41452;42.780;23.116;2022-09-13T18:04:18;5.05;;;3.83;;
55589;SDS011;41452;42.780;23.116;2022-09-13T18:06:46;4.75;;;3.40;;
55589;SDS011;41452;42.780;23.116;2022-09-13T18:09:12;7.55;;;3.92;;
55589;SDS011;41452;42.780;23.116;2022-09-13T18:11:39;6.28;;;3.47;;
55589;SDS011;41452;42.780;23.116;2022-09-13T18:14:05;5.93;;;3.80;;
55589;SDS011;41452;42.780;23.116;2022-09-13T18:16:31;5.07;;;3.17;;
55589;SDS011;41452;42.780;23.116;2022-09-13T18:18:58;5.03;;;3.50;;
55589;SDS011;41452;42.780;23.116;2022-09-13T18:21:24;5.65;;;3.60;;
55589;SDS011;41452;42.780;23.116;2022-09-13T18:23:51;4.65;;;3.33;;
55589;SDS011;41452;42.780;23.116;2022-09-13T18:26:20;5.70;;;3.50;;
55589;SDS011;41452;42.780;23.116;2022-09-13T18:28:51;5.00;;;3.40;;
55589;SDS011;41452;42.780;23.116;2022-09-13T18:31:21;10.38;;;3.53;;
55589;SDS011;41452;42.780;23.116;2022-09-13T18:33:52;5.15;;;3.10;;
55589;SDS011;41452;42.780;23.116;2022-09-13T18:36:22;4.20;;;3.10;;
55589;SDS011;41452;42.780;23.116;2022-09-13T18:38:48;7.20;;;3.55;;
55589;SDS011;41452;42.780;23.116;2022-09-13T18:41:24;6.32;;;2.88;;
55589;SDS011;41452;42.780;23.116;2022-09-13T18:43:51;5.00;;;3.10;;
55589;SDS011;41452;42.780;23.116;2022-09-13T18:46:20;4.38;;;3.25;;